sensor_id;sensor_type;location;lat;lon;timestamp;P1;durP1;ratioP1;P2;durP2;ratioP2
83499;SDS011;73433;50.908;13.746;2024-03-08T00:00:10;33.80;;;18.60;;
83499;SDS011;73433;50.908;13.746;2024-03-08T00:02:43;27.80;;;18.13;;
83499;SDS011;73433;50.908;13.746;2024-03-08T00:05:11;29.43;;;19.43;;
83499;SDS011;73433;50.908;13.746;2024-03-08T00:07:40;31.83;;;18.47;;
83499;SDS011;73433;50.908;13.746;2024-03-08T00:10:08;37.00;;;17.87;;
83499;SDS011;73433;50.908;13.746;2024-03-08T00:12:42;29.50;;;18.07;;
83499;SDS011;73433;50.908;13.746;2024-03-08T00:15:11;32.93;;;17.77;;
83499;SDS011;73433;50.908;13.746;2024-03-08T00:17:43;33.50;;;18.77;;
83499;SDS011;73433;50.908;13.746;2024-03-08T00:20:11;31.83;;;18.30;;
83499;SDS011;73433;50.908;13.746;2024-03-08T00:22:41;30.97;;;17.80;;
83499;SDS011;73433;50.908;13.746;2024-03-08T00:25:08;30.30;;;16.87;;
83499;SDS011;73433;50.908;13.746;2024-03-08T00:27:36;29.97;;;17.70;;
83499;SDS011;73433;50.908;13.746;2024-03-08T00:30:05;26.63;;;17.57;;
83499;SDS011;73433;50.908;13.746;2024-03-08T00:32:33;33.00;;;19.67;;
83499;SDS011;73433;50.908;13.746;2024-03-08T00:35:01;31.40;;;18.73;;
83499;SDS011;73433;50.908;13.746;2024-03-08T00:37:28;35.63;;;19.57;;
83499;SDS011;73433;50.908;13.746;2024-03-08T00:39:55;43.33;;;20.67;;
83499;SDS011;73433;50.908;13.746;2024-03-08T00:42:23;32.67;;;18.20;;
83499;SDS011;73433;50.908;13.746;2024-03-08T00:44:51;35.87;;;19.13;;
83499;SDS011;73433;50.908;13.746;2024-03-08T00:47:18;29.77;;;19.33;;
83499;SDS011;73433;50.908;13.746;2024-03-08T00:49:46;31.30;;;18.17;;
83499;SDS011;73433;50.908;13.746;2024-03-08T00:52:14;40.70;;;19.50;;
83499;SDS011;73433;50.908;13.746;2024-03-08T00:54:41;33.73;;;19.50;;
83499;SDS011;73433;50.908;13.746;2024-03-08T00:57:10;34.00;;;19.57;;
83499;SDS011;73433;50.908;13.746;2024-03-08T00:59:38;28.67;;;18.47;;
83499;SDS011;73433;50.908;13.746;2024-03-08T01:02:06;32.53;;;19.03;;
83499;SDS011;73433;50.908;13.746;2024-03-08T01:04:33;33.47;;;18.30;;
83499;SDS011;73433;50.908;13.746;2024-03-08T01:07:00;34.50;;;18.97;;
83499;SDS011;73433;50.908;13.746;2024-03-08T01:09:27;36.33;;;19.37;;
83499;SDS011;73433;50.908;13.746;2024-03-08T01:11:55;30.27;;;18.67;;
83499;SDS011;73433;50.908;13.746;2024-03-08T01:14:24;31.43;;;18.50;;
83499;SDS011;73433;50.908;13.746;2024-03-08T01:16:58;35.23;;;18.70;;
83499;SDS011;73433;50.908;13.746;2024-03-08T01:19:25;29.43;;;17.87;;
83499;SDS011;73433;50.908;13.746;2024-03-08T01:21:53;27.53;;;17.20;;
83499;SDS011;73433;50.908;13.746;2024-03-08T01:24:23;31.70;;;18.30;;
83499;SDS011;73433;50.908;13.746;2024-03-08T01:26:51;40.13;;;19.10;;
83499;SDS011;73433;50.908;13.746;2024-03-08T01:29:18;27.40;;;17.13;;
83499;SDS011;73433;50.908;13.746;2024-03-08T01:31:46;29.07;;;17.23;;
83499;SDS011;73433;50.908;13.746;2024-03-08T01:34:13;28.30;;;17.90;;
83499;SDS011;73433;50.908;13.746;2024-03-08T01:36:40;29.80;;;17.83;;
83499;SDS011;73433;50.908;13.746;2024-03-08T01:39:07;28.50;;;17.63;;
83499;SDS011;73433;50.908;13.746;2024-03-08T01:41:36;32.20;;;18.37;;
83499;SDS011;73433;50.908;13.746;2024-03-08T01:44:03;27.20;;;17.30;;
83499;SDS011;73433;50.908;13.746;2024-03-08T01:46:31;31.93;;;16.87;;
83499;SDS011;73433;50.908;13.746;2024-03-08T01:48:59;30.10;;;17.47;;
83499;SDS011;73433;50.908;13.746;2024-03-08T01:51:28;35.03;;;17.77;;
83499;SDS011;73433;50.908;13.746;2024-03-08T01:53:56;32.93;;;17.90;;
83499;SDS011;73433;50.908;13.746;2024-03-08T01:56:24;31.03;;;18.20;;
83499;SDS011;73433;50.908;13.746;2024-03-08T01:58:53;28.27;;;17.87;;
83499;SDS011;73433;50.908;13.746;2024-03-08T02:01:21;34.97;;;18.20;;
83499;SDS011;73433;50.908;13.746;2024-03-08T02:03:49;35.00;;;18.73;;
83499;SDS011;73433;50.908;13.746;2024-03-08T02:06:16;30.03;;;17.20;;
83499;SDS011;73433;50.908;13.746;2024-03-08T02:08:43;28.20;;;16.90;;
83499;SDS011;73433;50.908;13.746;2024-03-08T02:11:12;33.17;;;18.03;;
83499;SDS011;73433;50.908;13.746;2024-03-08T02:13:39;30.63;;;17.27;;
83499;SDS011;73433;50.908;13.746;2024-03-08T02:16:07;32.73;;;17.50;;
83499;SDS011;73433;50.908;13.746;2024-03-08T02:18:35;29.80;;;17.73;;
83499;SDS011;73433;50.908;13.746;2024-03-08T02:21:04;30.03;;;17.80;;
83499;SDS011;73433;50.908;13.746;2024-03-08T02:23:33;28.13;;;17.13;;
83499;SDS011;73433;50.908;13.746;2024-03-08T02:26:01;30.93;;;17.53;;
83499;SDS011;73433;50.908;13.746;2024-03-08T02:28:28;27.53;;;16.60;;
83499;SDS011;73433;50.908;13.746;2024-03-08T02:30:55;31.27;;;17.80;;
83499;SDS011;73433;50.908;13.746;2024-03-08T02:33:24;31.10;;;17.27;;
83499;SDS011;73433;50.908;13.746;2024-03-08T02:35:54;29.70;;;17.93;;
83499;SDS011;73433;50.908;13.746;2024-03-08T02:38:25;27.97;;;16.13;;
83499;SDS011;73433;50.908;13.746;2024-03-08T02:40:53;26.17;;;15.57;;
83499;SDS011;73433;50.908;13.746;2024-03-08T02:43:21;29.97;;;16.30;;
83499;SDS011;73433;50.908;13.746;2024-03-08T02:45:49;28.30;;;17.97;;
83499;SDS011;73433;50.908;13.746;2024-03-08T02:48:19;30.17;;;17.80;;
83499;SDS011;73433;50.908;13.746;2024-03-08T02:50:48;32.80;;;17.63;;
83499;SDS011;73433;50.908;13.746;2024-03-08T02:53:18;29.43;;;18.03;;
83499;SDS011;73433;50.908;13.746;2024-03-08T02:55:45;31.67;;;17.93;;
83499;SDS011;73433;50.908;13.746;2024-03-08T02:58:13;26.07;;;16.27;;
83499;SDS011;73433;50.908;13.746;2024-03-08T03:00:41;32.43;;;16.70;;
83499;SDS011;73433;50.908;13.746;2024-03-08T03:03:11;32.70;;;17.90;;
83499;SDS011;73433;50.908;13.746;2024-03-08T03:05:38;28.93;;;16.87;;
83499;SDS011;73433;50.908;13.746;2024-03-08T03:08:14;30.43;;;17.23;;
83499;SDS011;73433;50.908;13.746;2024-03-08T03:10:44;30.97;;;16.97;;
83499;SDS011;73433;50.908;13.746;2024-03-08T03:13:12;29.83;;;17.57;;
83499;SDS011;73433;50.908;13.746;2024-03-08T03:15:40;26.73;;;15.97;;
83499;SDS011;73433;50.908;13.746;2024-03-08T03:18:10;32.00;;;17.77;;
83499;SDS011;73433;50.908;13.746;2024-03-08T03:20:38;29.90;;;16.63;;
83499;SDS011;73433;50.908;13.746;2024-03-08T03:23:10;30.67;;;17.50;;
83499;SDS011;73433;50.908;13.746;2024-03-08T03:25:41;26.23;;;16.40;;
83499;SDS011;73433;50.908;13.746;2024-03-08T03:28:08;28.10;;;17.30;;
83499;SDS011;73433;50.908;13.746;2024-03-08T03:30:38;32.60;;;19.17;;
83499;SDS011;73433;50.908;13.746;2024-03-08T03:33:05;35.97;;;18.70;;
83499;SDS011;73433;50.908;13.746;2024-03-08T03:35:34;28.00;;;16.60;;
83499;SDS011;73433;50.908;13.746;2024-03-08T03:38:03;31.40;;;16.50;;
83499;SDS011;73433;50.908;13.746;2024-03-08T03:40:37;29.03;;;16.17;;
83499;SDS011;73433;50.908;13.746;2024-03-08T03:43:05;29.20;;;16.67;;
83499;SDS011;73433;50.908;13.746;2024-03-08T03:45:33;32.03;;;17.07;;
83499;SDS011;73433;50.908;13.746;2024-03-08T03:48:06;30.97;;;17.03;;
83499;SDS011;73433;50.908;13.746;2024-03-08T03:50:37;30.87;;;16.90;;
83499;SDS011;73433;50.908;13.746;2024-03-08T03:53:05;31.53;;;17.73;;
83499;SDS011;73433;50.908;13.746;2024-03-08T03:55:37;31.90;;;18.03;;
83499;SDS011;73433;50.908;13.746;2024-03-08T03:58:07;30.90;;;17.43;;
83499;SDS011;73433;50.908;13.746;2024-03-08T04:00:37;32.30;;;17.67;;
83499;SDS011;73433;50.908;13.746;2024-03-08T04:03:05;28.13;;;17.50;;
83499;SDS011;73433;50.908;13.746;2024-03-08T04:05:32;50.13;;;23.97;;
83499;SDS011;73433;50.908;13.746;2024-03-08T04:08:00;31.90;;;18.17;;
83499;SDS011;73433;50.908;13.746;2024-03-08T04:10:27;32.37;;;18.60;;
83499;SDS011;73433;50.908;13.746;2024-03-08T04:12:54;35.07;;;19.00;;
83499;SDS011;73433;50.908;13.746;2024-03-08T04:15:23;37.83;;;18.50;;
83499;SDS011;73433;50.908;13.746;2024-03-08T04:17:50;39.90;;;20.97;;
83499;SDS011;73433;50.908;13.746;2024-03-08T04:20:17;32.80;;;18.37;;
83499;SDS011;73433;50.908;13.746;2024-03-08T04:22:44;31.57;;;18.27;;
83499;SDS011;73433;50.908;13.746;2024-03-08T04:25:15;39.53;;;20.70;;
83499;SDS011;73433;50.908;13.746;2024-03-08T04:27:43;45.33;;;18.73;;
83499;SDS011;73433;50.908;13.746;2024-03-08T04:30:11;35.17;;;18.70;;
83499;SDS011;73433;50.908;13.746;2024-03-08T04:32:41;53.30;;;26.07;;
83499;SDS011;73433;50.908;13.746;2024-03-08T04:35:09;60.83;;;27.33;;
83499;SDS011;73433;50.908;13.746;2024-03-08T04:37:42;35.50;;;20.17;;
83499;SDS011;73433;50.908;13.746;2024-03-08T04:40:09;42.63;;;20.80;;
83499;SDS011;73433;50.908;13.746;2024-03-08T04:42:37;32.67;;;17.93;;
83499;SDS011;73433;50.908;13.746;2024-03-08T04:45:05;33.03;;;18.67;;
83499;SDS011;73433;50.908;13.746;2024-03-08T04:47:34;29.83;;;18.40;;
83499;SDS011;73433;50.908;13.746;2024-03-08T04:50:03;33.97;;;18.30;;
83499;SDS011;73433;50.908;13.746;2024-03-08T04:52:31;31.40;;;18.13;;
83499;SDS011;73433;50.908;13.746;2024-03-08T04:54:58;30.30;;;18.40;;
83499;SDS011;73433;50.908;13.746;2024-03-08T04:57:25;33.97;;;18.30;;
83499;SDS011;73433;50.908;13.746;2024-03-08T04:59:53;39.90;;;18.40;;
83499;SDS011;73433;50.908;13.746;2024-03-08T05:02:20;25.30;;;17.37;;
83499;SDS011;73433;50.908;13.746;2024-03-08T05:04:49;33.40;;;18.47;;
83499;SDS011;73433;50.908;13.746;2024-03-08T05:07:17;33.80;;;18.90;;
83499;SDS011;73433;50.908;13.746;2024-03-08T05:09:45;37.03;;;17.97;;
83499;SDS011;73433;50.908;13.746;2024-03-08T05:12:18;36.30;;;18.77;;
83499;SDS011;73433;50.908;13.746;2024-03-08T05:14:46;31.03;;;17.27;;
83499;SDS011;73433;50.908;13.746;2024-03-08T05:17:16;31.07;;;17.03;;
83499;SDS011;73433;50.908;13.746;2024-03-08T05:19:44;31.80;;;17.30;;
83499;SDS011;73433;50.908;13.746;2024-03-08T05:22:11;34.77;;;17.10;;
83499;SDS011;73433;50.908;13.746;2024-03-08T05:24:40;41.17;;;17.80;;
83499;SDS011;73433;50.908;13.746;2024-03-08T05:27:07;26.60;;;15.83;;
83499;SDS011;73433;50.908;13.746;2024-03-08T05:29:34;25.53;;;15.63;;
83499;SDS011;73433;50.908;13.746;2024-03-08T05:32:02;32.37;;;17.00;;
83499;SDS011;73433;50.908;13.746;2024-03-08T05:34:30;28.87;;;15.63;;
83499;SDS011;73433;50.908;13.746;2024-03-08T05:36:57;28.47;;;15.40;;
83499;SDS011;73433;50.908;13.746;2024-03-08T05:39:25;28.00;;;17.07;;
83499;SDS011;73433;50.908;13.746;2024-03-08T05:41:52;24.23;;;14.70;;
83499;SDS011;73433;50.908;13.746;2024-03-08T05:44:22;31.10;;;17.40;;
83499;SDS011;73433;50.908;13.746;2024-03-08T05:46:49;35.33;;;18.50;;
83499;SDS011;73433;50.908;13.746;2024-03-08T05:49:17;29.07;;;17.07;;
83499;SDS011;73433;50.908;13.746;2024-03-08T05:51:44;34.87;;;17.57;;
83499;SDS011;73433;50.908;13.746;2024-03-08T05:54:14;29.30;;;16.43;;
83499;SDS011;73433;50.908;13.746;2024-03-08T05:56:45;33.97;;;19.20;;
83499;SDS011;73433;50.908;13.746;2024-03-08T05:59:14;36.73;;;18.40;;
83499;SDS011;73433;50.908;13.746;2024-03-08T06:01:41;31.60;;;17.87;;
83499;SDS011;73433;50.908;13.746;2024-03-08T06:04:09;39.83;;;21.03;;
83499;SDS011;73433;50.908;13.746;2024-03-08T06:06:39;50.53;;;24.17;;
83499;SDS011;73433;50.908;13.746;2024-03-08T06:09:07;31.93;;;17.77;;
83499;SDS011;73433;50.908;13.746;2024-03-08T06:11:44;23.80;;;14.97;;
83499;SDS011;73433;50.908;13.746;2024-03-08T06:14:12;27.23;;;16.17;;
83499;SDS011;73433;50.908;13.746;2024-03-08T06:16:39;25.70;;;15.33;;
83499;SDS011;73433;50.908;13.746;2024-03-08T06:19:06;33.63;;;17.57;;
83499;SDS011;73433;50.908;13.746;2024-03-08T06:21:34;30.27;;;16.10;;
83499;SDS011;73433;50.908;13.746;2024-03-08T06:24:01;25.77;;;15.83;;
83499;SDS011;73433;50.908;13.746;2024-03-08T06:26:28;35.50;;;20.77;;
83499;SDS011;73433;50.908;13.746;2024-03-08T06:28:57;33.77;;;20.00;;
83499;SDS011;73433;50.908;13.746;2024-03-08T06:31:25;35.03;;;17.80;;
83499;SDS011;73433;50.908;13.746;2024-03-08T06:33:52;28.27;;;17.03;;
83499;SDS011;73433;50.908;13.746;2024-03-08T06:36:22;34.67;;;18.70;;
83499;SDS011;73433;50.908;13.746;2024-03-08T06:38:51;36.90;;;19.73;;
83499;SDS011;73433;50.908;13.746;2024-03-08T06:41:18;32.70;;;18.60;;
83499;SDS011;73433;50.908;13.746;2024-03-08T06:43:46;34.77;;;18.00;;
83499;SDS011;73433;50.908;13.746;2024-03-08T06:46:15;31.70;;;18.20;;
83499;SDS011;73433;50.908;13.746;2024-03-08T06:48:43;30.20;;;18.17;;
83499;SDS011;73433;50.908;13.746;2024-03-08T06:51:12;33.20;;;18.50;;
83499;SDS011;73433;50.908;13.746;2024-03-08T06:53:41;33.43;;;19.10;;
83499;SDS011;73433;50.908;13.746;2024-03-08T06:56:08;35.10;;;20.30;;
83499;SDS011;73433;50.908;13.746;2024-03-08T06:58:36;34.27;;;19.10;;
83499;SDS011;73433;50.908;13.746;2024-03-08T07:01:04;37.97;;;20.00;;
83499;SDS011;73433;50.908;13.746;2024-03-08T07:03:34;40.00;;;21.10;;
83499;SDS011;73433;50.908;13.746;2024-03-08T07:06:01;41.07;;;22.43;;
83499;SDS011;73433;50.908;13.746;2024-03-08T07:08:30;45.00;;;19.20;;
83499;SDS011;73433;50.908;13.746;2024-03-08T07:10:57;30.03;;;18.63;;
83499;SDS011;73433;50.908;13.746;2024-03-08T07:13:26;35.93;;;19.90;;
83499;SDS011;73433;50.908;13.746;2024-03-08T07:15:56;34.40;;;18.13;;
83499;SDS011;73433;50.908;13.746;2024-03-08T07:18:26;37.87;;;21.33;;
83499;SDS011;73433;50.908;13.746;2024-03-08T07:20:57;33.23;;;21.17;;
83499;SDS011;73433;50.908;13.746;2024-03-08T07:23:24;34.80;;;20.37;;
83499;SDS011;73433;50.908;13.746;2024-03-08T07:26:27;29.60;;;18.20;;
83499;SDS011;73433;50.908;13.746;2024-03-08T07:28:54;33.07;;;19.07;;
83499;SDS011;73433;50.908;13.746;2024-03-08T07:31:22;33.50;;;20.17;;
83499;SDS011;73433;50.908;13.746;2024-03-08T07:33:52;33.37;;;19.57;;
83499;SDS011;73433;50.908;13.746;2024-03-08T07:36:22;33.40;;;20.17;;
83499;SDS011;73433;50.908;13.746;2024-03-08T07:38:49;29.70;;;18.73;;
83499;SDS011;73433;50.908;13.746;2024-03-08T07:41:16;33.03;;;19.47;;
83499;SDS011;73433;50.908;13.746;2024-03-08T07:43:43;32.87;;;19.40;;
83499;SDS011;73433;50.908;13.746;2024-03-08T07:46:11;30.37;;;18.70;;
83499;SDS011;73433;50.908;13.746;2024-03-08T07:48:40;30.67;;;19.90;;
83499;SDS011;73433;50.908;13.746;2024-03-08T07:51:07;37.83;;;19.00;;
83499;SDS011;73433;50.908;13.746;2024-03-08T07:53:36;35.43;;;19.60;;
83499;SDS011;73433;50.908;13.746;2024-03-08T07:56:04;29.00;;;19.23;;
83499;SDS011;73433;50.908;13.746;2024-03-08T07:58:33;28.23;;;18.20;;
83499;SDS011;73433;50.908;13.746;2024-03-08T08:01:01;30.07;;;20.70;;
83499;SDS011;73433;50.908;13.746;2024-03-08T08:03:29;37.47;;;20.77;;
83499;SDS011;73433;50.908;13.746;2024-03-08T08:05:56;34.20;;;20.17;;
83499;SDS011;73433;50.908;13.746;2024-03-08T08:08:23;35.00;;;21.13;;
83499;SDS011;73433;50.908;13.746;2024-03-08T08:10:52;29.70;;;20.97;;
83499;SDS011;73433;50.908;13.746;2024-03-08T08:13:19;29.10;;;19.50;;
83499;SDS011;73433;50.908;13.746;2024-03-08T08:15:47;30.47;;;21.93;;
83499;SDS011;73433;50.908;13.746;2024-03-08T08:18:14;28.00;;;19.97;;
83499;SDS011;73433;50.908;13.746;2024-03-08T08:20:41;33.77;;;21.73;;
83499;SDS011;73433;50.908;13.746;2024-03-08T08:23:09;27.67;;;20.03;;
83499;SDS011;73433;50.908;13.746;2024-03-08T08:25:37;31.20;;;20.23;;
83499;SDS011;73433;50.908;13.746;2024-03-08T08:28:05;29.97;;;20.57;;
83499;SDS011;73433;50.908;13.746;2024-03-08T08:30:39;26.23;;;18.93;;
83499;SDS011;73433;50.908;13.746;2024-03-08T08:33:06;31.73;;;21.17;;
83499;SDS011;73433;50.908;13.746;2024-03-08T08:35:35;33.07;;;20.27;;
83499;SDS011;73433;50.908;13.746;2024-03-08T08:38:05;29.10;;;21.63;;
83499;SDS011;73433;50.908;13.746;2024-03-08T08:40:34;29.37;;;21.37;;
83499;SDS011;73433;50.908;13.746;2024-03-08T08:43:02;25.73;;;14.90;;
83499;SDS011;73433;50.908;13.746;2024-03-08T08:45:33;29.63;;;18.33;;
83499;SDS011;73433;50.908;13.746;2024-03-08T08:48:00;24.63;;;17.50;;
83499;SDS011;73433;50.908;13.746;2024-03-08T08:50:28;29.00;;;19.40;;
83499;SDS011;73433;50.908;13.746;2024-03-08T08:52:55;30.30;;;19.20;;
83499;SDS011;73433;50.908;13.746;2024-03-08T08:55:22;31.07;;;19.70;;
83499;SDS011;73433;50.908;13.746;2024-03-08T08:57:53;36.53;;;21.03;;
83499;SDS011;73433;50.908;13.746;2024-03-08T09:00:21;32.23;;;15.97;;
83499;SDS011;73433;50.908;13.746;2024-03-08T09:02:50;32.20;;;20.10;;
83499;SDS011;73433;50.908;13.746;2024-03-08T09:05:18;30.67;;;22.00;;
83499;SDS011;73433;50.908;13.746;2024-03-08T09:07:45;31.80;;;19.17;;
83499;SDS011;73433;50.908;13.746;2024-03-08T09:10:12;29.70;;;20.77;;
83499;SDS011;73433;50.908;13.746;2024-03-08T09:12:43;24.57;;;17.23;;
83499;SDS011;73433;50.908;13.746;2024-03-08T09:15:11;26.00;;;18.00;;
83499;SDS011;73433;50.908;13.746;2024-03-08T09:17:39;28.30;;;19.77;;
83499;SDS011;73433;50.908;13.746;2024-03-08T09:20:08;20.50;;;15.50;;
83499;SDS011;73433;50.908;13.746;2024-03-08T09:22:37;29.20;;;19.37;;
83499;SDS011;73433;50.908;13.746;2024-03-08T09:25:04;26.03;;;19.23;;
83499;SDS011;73433;50.908;13.746;2024-03-08T09:27:32;29.47;;;20.67;;
83499;SDS011;73433;50.908;13.746;2024-03-08T09:30:05;29.93;;;20.33;;
83499;SDS011;73433;50.908;13.746;2024-03-08T09:32:34;29.70;;;19.93;;
83499;SDS011;73433;50.908;13.746;2024-03-08T09:35:01;32.70;;;18.17;;
83499;SDS011;73433;50.908;13.746;2024-03-08T09:37:29;25.80;;;19.70;;
83499;SDS011;73433;50.908;13.746;2024-03-08T09:39:57;29.20;;;20.30;;
83499;SDS011;73433;50.908;13.746;2024-03-08T09:42:26;29.57;;;20.03;;
83499;SDS011;73433;50.908;13.746;2024-03-08T09:44:53;28.93;;;20.60;;
83499;SDS011;73433;50.908;13.746;2024-03-08T09:47:20;31.90;;;21.43;;
83499;SDS011;73433;50.908;13.746;2024-03-08T09:49:51;31.30;;;21.20;;
83499;SDS011;73433;50.908;13.746;2024-03-08T09:52:20;31.30;;;22.50;;
83499;SDS011;73433;50.908;13.746;2024-03-08T09:54:47;32.60;;;21.20;;
83499;SDS011;73433;50.908;13.746;2024-03-08T09:57:16;31.20;;;21.90;;
83499;SDS011;73433;50.908;13.746;2024-03-08T09:59:46;34.27;;;20.93;;
83499;SDS011;73433;50.908;13.746;2024-03-08T10:02:15;41.23;;;21.97;;
83499;SDS011;73433;50.908;13.746;2024-03-08T10:04:43;29.67;;;21.23;;
83499;SDS011;73433;50.908;13.746;2024-03-08T10:07:13;32.83;;;22.70;;
83499;SDS011;73433;50.908;13.746;2024-03-08T10:09:41;30.37;;;22.80;;
83499;SDS011;73433;50.908;13.746;2024-03-08T10:12:14;34.07;;;23.57;;
83499;SDS011;73433;50.908;13.746;2024-03-08T10:14:46;42.10;;;23.03;;
83499;SDS011;73433;50.908;13.746;2024-03-08T10:17:13;30.83;;;21.30;;
83499;SDS011;73433;50.908;13.746;2024-03-08T10:19:49;32.33;;;20.73;;
83499;SDS011;73433;50.908;13.746;2024-03-08T10:22:18;32.03;;;22.37;;
83499;SDS011;73433;50.908;13.746;2024-03-08T10:24:46;27.60;;;19.53;;
83499;SDS011;73433;50.908;13.746;2024-03-08T10:27:16;28.43;;;21.93;;
83499;SDS011;73433;50.908;13.746;2024-03-08T10:29:52;27.90;;;20.87;;
83499;SDS011;73433;50.908;13.746;2024-03-08T10:32:20;29.70;;;19.50;;
83499;SDS011;73433;50.908;13.746;2024-03-08T10:34:47;26.37;;;20.57;;
83499;SDS011;73433;50.908;13.746;2024-03-08T10:37:17;31.03;;;21.73;;
83499;SDS011;73433;50.908;13.746;2024-03-08T10:40:00;30.23;;;21.30;;
83499;SDS011;73433;50.908;13.746;2024-03-08T10:42:40;31.10;;;19.87;;
83499;SDS011;73433;50.908;13.746;2024-03-08T10:45:15;27.20;;;20.30;;
83499;SDS011;73433;50.908;13.746;2024-03-08T10:47:49;32.47;;;22.43;;
83499;SDS011;73433;50.908;13.746;2024-03-08T10:50:20;30.77;;;20.83;;
83499;SDS011;73433;50.908;13.746;2024-03-08T10:52:49;30.63;;;22.17;;
83499;SDS011;73433;50.908;13.746;2024-03-08T10:55:17;26.17;;;21.60;;
83499;SDS011;73433;50.908;13.746;2024-03-08T10:57:47;30.00;;;21.33;;
83499;SDS011;73433;50.908;13.746;2024-03-08T11:00:14;31.40;;;21.17;;
83499;SDS011;73433;50.908;13.746;2024-03-08T11:02:43;25.90;;;21.20;;
83499;SDS011;73433;50.908;13.746;2024-03-08T11:05:13;29.67;;;21.60;;
83499;SDS011;73433;50.908;13.746;2024-03-08T11:08:02;30.13;;;21.83;;
83499;SDS011;73433;50.908;13.746;2024-03-08T11:10:30;28.50;;;22.10;;
83499;SDS011;73433;50.908;13.746;2024-03-08T11:12:59;33.53;;;22.50;;
83499;SDS011;73433;50.908;13.746;2024-03-08T11:15:26;30.63;;;22.43;;
83499;SDS011;73433;50.908;13.746;2024-03-08T11:17:58;27.97;;;20.57;;
83499;SDS011;73433;50.908;13.746;2024-03-08T11:20:26;26.63;;;21.30;;
83499;SDS011;73433;50.908;13.746;2024-03-08T11:23:00;26.73;;;19.93;;
83499;SDS011;73433;50.908;13.746;2024-03-08T11:28:07;27.53;;;21.60;;
83499;SDS011;73433;50.908;13.746;2024-03-08T11:30:37;26.10;;;21.77;;
83499;SDS011;73433;50.908;13.746;2024-03-08T11:33:05;27.60;;;21.80;;
83499;SDS011;73433;50.908;13.746;2024-03-08T11:35:39;29.43;;;21.60;;
83499;SDS011;73433;50.908;13.746;2024-03-08T11:38:08;22.50;;;18.93;;
83499;SDS011;73433;50.908;13.746;2024-03-08T11:40:36;36.57;;;21.47;;
83499;SDS011;73433;50.908;13.746;2024-03-08T11:43:04;27.47;;;20.77;;
83499;SDS011;73433;50.908;13.746;2024-03-08T11:45:36;22.10;;;18.00;;
83499;SDS011;73433;50.908;13.746;2024-03-08T11:48:03;19.73;;;17.30;;
83499;SDS011;73433;50.908;13.746;2024-03-08T11:50:31;27.30;;;19.70;;
83499;SDS011;73433;50.908;13.746;2024-03-08T11:53:02;28.97;;;21.27;;
83499;SDS011;73433;50.908;13.746;2024-03-08T11:55:33;26.47;;;20.30;;
83499;SDS011;73433;50.908;13.746;2024-03-08T11:58:02;23.20;;;18.30;;
83499;SDS011;73433;50.908;13.746;2024-03-08T12:00:31;19.50;;;16.37;;
83499;SDS011;73433;50.908;13.746;2024-03-08T12:03:05;19.70;;;17.40;;
83499;SDS011;73433;50.908;13.746;2024-03-08T12:05:33;21.80;;;17.13;;
83499;SDS011;73433;50.908;13.746;2024-03-08T12:08:04;22.60;;;17.70;;
83499;SDS011;73433;50.908;13.746;2024-03-08T12:10:33;23.43;;;17.07;;
83499;SDS011;73433;50.908;13.746;2024-03-08T12:13:02;26.23;;;15.77;;
83499;SDS011;73433;50.908;13.746;2024-03-08T12:15:39;18.60;;;16.67;;
83499;SDS011;73433;50.908;13.746;2024-03-08T12:18:06;20.90;;;17.43;;
83499;SDS011;73433;50.908;13.746;2024-03-08T12:20:34;21.13;;;18.03;;
83499;SDS011;73433;50.908;13.746;2024-03-08T12:23:01;24.87;;;17.30;;
83499;SDS011;73433;50.908;13.746;2024-03-08T12:25:32;18.77;;;16.33;;
83499;SDS011;73433;50.908;13.746;2024-03-08T12:28:08;19.23;;;16.13;;
83499;SDS011;73433;50.908;13.746;2024-03-08T12:30:47;18.77;;;16.87;;
83499;SDS011;73433;50.908;13.746;2024-03-08T12:33:17;17.77;;;15.87;;
83499;SDS011;73433;50.908;13.746;2024-03-08T12:35:51;21.00;;;15.50;;
83499;SDS011;73433;50.908;13.746;2024-03-08T12:38:27;15.27;;;13.87;;
83499;SDS011;73433;50.908;13.746;2024-03-08T12:40:55;16.83;;;15.07;;
83499;SDS011;73433;50.908;13.746;2024-03-08T12:43:24;16.33;;;14.60;;
83499;SDS011;73433;50.908;13.746;2024-03-08T12:45:52;15.13;;;13.60;;
83499;SDS011;73433;50.908;13.746;2024-03-08T12:48:19;14.57;;;13.17;;
83499;SDS011;73433;50.908;13.746;2024-03-08T12:50:47;19.27;;;14.23;;
83499;SDS011;73433;50.908;13.746;2024-03-08T12:53:14;15.63;;;13.67;;
83499;SDS011;73433;50.908;13.746;2024-03-08T12:55:42;15.80;;;14.20;;
83499;SDS011;73433;50.908;13.746;2024-03-08T12:58:09;13.87;;;12.47;;
83499;SDS011;73433;50.908;13.746;2024-03-08T13:00:36;14.40;;;12.90;;
83499;SDS011;73433;50.908;13.746;2024-03-08T13:03:06;18.60;;;15.57;;
83499;SDS011;73433;50.908;13.746;2024-03-08T13:05:37;14.27;;;13.07;;
83499;SDS011;73433;50.908;13.746;2024-03-08T13:08:06;16.07;;;14.57;;
83499;SDS011;73433;50.908;13.746;2024-03-08T13:10:40;16.40;;;14.83;;
83499;SDS011;73433;50.908;13.746;2024-03-08T13:13:10;15.43;;;13.93;;
83499;SDS011;73433;50.908;13.746;2024-03-08T13:15:44;14.27;;;12.77;;
83499;SDS011;73433;50.908;13.746;2024-03-08T13:18:11;14.57;;;13.07;;
83499;SDS011;73433;50.908;13.746;2024-03-08T13:20:39;13.53;;;12.33;;
83499;SDS011;73433;50.908;13.746;2024-03-08T13:23:14;14.97;;;13.47;;
83499;SDS011;73433;50.908;13.746;2024-03-08T13:25:41;22.63;;;13.67;;
83499;SDS011;73433;50.908;13.746;2024-03-08T13:28:09;16.27;;;14.67;;
83499;SDS011;73433;50.908;13.746;2024-03-08T13:30:37;15.87;;;14.23;;
83499;SDS011;73433;50.908;13.746;2024-03-08T13:33:04;20.53;;;15.67;;
83499;SDS011;73433;50.908;13.746;2024-03-08T13:35:34;25.93;;;17.67;;
83499;SDS011;73433;50.908;13.746;2024-03-08T13:38:01;23.03;;;16.50;;
83499;SDS011;73433;50.908;13.746;2024-03-08T13:40:31;30.40;;;16.60;;
83499;SDS011;73433;50.908;13.746;2024-03-08T13:42:58;20.73;;;15.90;;
83499;SDS011;73433;50.908;13.746;2024-03-08T13:45:27;18.70;;;16.17;;
83499;SDS011;73433;50.908;13.746;2024-03-08T13:47:55;20.23;;;16.40;;
83499;SDS011;73433;50.908;13.746;2024-03-08T13:50:22;17.63;;;15.40;;
83499;SDS011;73433;50.908;13.746;2024-03-08T13:52:50;18.03;;;15.33;;
83499;SDS011;73433;50.908;13.746;2024-03-08T13:55:20;17.50;;;15.63;;
83499;SDS011;73433;50.908;13.746;2024-03-08T13:57:54;26.27;;;22.03;;
83499;SDS011;73433;50.908;13.746;2024-03-08T14:00:24;16.63;;;14.97;;
83499;SDS011;73433;50.908;13.746;2024-03-08T14:02:54;14.77;;;13.27;;
83499;SDS011;73433;50.908;13.746;2024-03-08T14:05:21;25.70;;;15.80;;
83499;SDS011;73433;50.908;13.746;2024-03-08T14:07:48;19.27;;;15.37;;
83499;SDS011;73433;50.908;13.746;2024-03-08T14:10:17;15.83;;;14.03;;
83499;SDS011;73433;50.908;13.746;2024-03-08T14:12:49;20.10;;;15.80;;
83499;SDS011;73433;50.908;13.746;2024-03-08T14:15:17;15.63;;;14.17;;
83499;SDS011;73433;50.908;13.746;2024-03-08T14:17:44;11.60;;;10.50;;
83499;SDS011;73433;50.908;13.746;2024-03-08T14:20:19;12.87;;;11.60;;